Little Rock Air Force Base Jacksonville US
ICAO: KLRF
IATA: LRF
Category: Medium
Scheduled Services: No

Elevation: 311 ft
TransAlt. 18000 ft.

Airport Communications:
APP/DEP:119.5
ATIS:25.11
CLNC DEL:25.35
GND:132.8
ANG COMD POST:143.8
PMSV METRO:23.98
COMD POST:34.94
PTD:37.22
TWR:120.6

KLRF Zoom In..

Runways:

(A) RW 07 length 12000 ft width 200 ft
---- / hdg 70

(B) RW 25 length 12000 ft width 200 ft
ILS 109.90 / hdg 250

Location; KLRF
Day. 19 / Time. 02.56 Zulu
* Altimeter: 29.92
* Temperature: 25° c. 77°f.
* Wind from: 090° Speed 03 kn.
Dewpoint: 25° c.
Visibility: 10 Statute Miles.
Clouds: Few 3700 ft.

KLRF 190256Z AUTO 09003KT 10SM FEW037 25/25 A2992 RMK AO2 RAB14E25DZB25E26DZB44E47 SLPNO P0000 60000 T02520252 53002


Wind From 090°
Speed 03 kn.

 
 
jpsmedia.com for Web Design worldairports.se 2018   terms of use